createdAt,value
2017-10-29T00:00:42.163Z,13.68
2017-10-29T00:02:35.158Z,13.74
2017-10-29T00:03:35.213Z,13.74
2017-10-29T00:05:28.223Z,13.86
2017-10-29T00:06:28.263Z,13.72
2017-10-29T00:08:21.267Z,13.81
2017-10-29T00:09:21.310Z,13.81
2017-10-29T00:11:14.297Z,13.71
2017-10-29T00:12:14.355Z,13.86
2017-10-29T00:14:07.364Z,13.67
2017-10-29T00:15:07.402Z,13.74
2017-10-29T00:17:00.385Z,13.74
2017-10-29T00:18:00.445Z,13.70
2017-10-29T00:19:53.453Z,13.70
2017-10-29T00:20:53.490Z,13.86
2017-10-29T00:22:46.474Z,13.85
2017-10-29T00:23:46.535Z,13.86
2017-10-29T00:25:40.048Z,13.77
2017-10-29T00:26:40.090Z,13.83
2017-10-29T00:28:33.080Z,13.79
2017-10-29T00:29:33.148Z,13.81
2017-10-29T00:31:26.149Z,13.79
2017-10-29T00:32:26.191Z,13.86
2017-10-29T00:34:19.195Z,13.78
2017-10-29T00:35:19.235Z,13.86
2017-10-29T00:37:12.218Z,13.77
2017-10-29T00:38:12.281Z,13.79
2017-10-29T00:40:05.288Z,13.85
2017-10-29T00:41:05.324Z,13.72
2017-10-29T00:42:58.314Z,13.77
2017-10-29T00:43:58.371Z,13.81
2017-10-29T00:45:51.375Z,13.89
2017-10-29T00:46:51.412Z,13.87
2017-10-29T00:48:44.404Z,13.96
2017-10-29T00:49:44.458Z,13.92
2017-10-29T00:51:37.462Z,13.96
2017-10-29T00:52:37.503Z,13.95
2017-10-29T00:54:30.490Z,13.87
2017-10-29T00:55:30.548Z,13.95
2017-10-29T00:57:23.553Z,13.87
2017-10-29T00:58:23.597Z,13.90
2017-10-29T01:00:16.582Z,13.93
2017-10-29T01:01:16.638Z,13.90
2017-10-29T01:03:09.645Z,13.87
2017-10-29T01:04:09.683Z,13.89
2017-10-29T01:06:02.682Z,13.79
2017-10-29T01:07:02.731Z,13.79
2017-10-29T01:08:55.733Z,13.92
2017-10-29T01:09:55.774Z,13.87
2017-10-29T01:11:48.779Z,13.83
2017-10-29T01:12:48.820Z,13.75
2017-10-29T01:14:41.819Z,13.87
2017-10-29T01:15:41.867Z,13.86
2017-10-29T01:17:34.875Z,13.78
2017-10-29T01:18:34.915Z,13.77
2017-10-29T01:20:27.905Z,13.89
2017-10-29T01:21:27.963Z,13.79
2017-10-29T01:23:20.969Z,13.78
2017-10-29T01:24:21.007Z,13.87
2017-10-29T01:26:13.997Z,13.87
2017-10-29T01:27:14.062Z,13.77
2017-10-29T01:29:07.065Z,13.77
2017-10-29T01:30:07.100Z,13.77
2017-10-29T01:32:00.090Z,13.92
2017-10-29T01:33:00.148Z,13.87
2017-10-29T01:34:53.151Z,13.87
2017-10-29T01:35:53.193Z,13.87
2017-10-29T01:37:46.181Z,13.87
2017-10-29T01:38:46.242Z,13.87
2017-10-29T01:40:39.243Z,13.90
2017-10-29T01:41:39.286Z,13.87
2017-10-29T01:43:32.287Z,13.89
2017-10-29T01:44:32.332Z,13.95
2017-10-29T01:46:25.317Z,13.90
2017-10-29T01:47:25.373Z,13.90
2017-10-29T01:49:18.380Z,13.89
2017-10-29T01:50:18.420Z,13.83
2017-10-29T01:52:11.406Z,13.78
2017-10-29T01:53:11.465Z,13.83
2017-10-29T01:55:04.472Z,13.89
2017-10-29T01:56:04.511Z,13.86
2017-10-29T01:57:57.502Z,13.86
2017-10-29T01:58:57.557Z,13.83
2017-10-29T02:00:50.561Z,13.90
2017-10-29T02:01:50.602Z,13.83
2017-10-29T02:03:43.620Z,13.89
2017-10-29T02:04:43.647Z,13.89
2017-10-29T02:06:36.634Z,13.78
2017-10-29T02:07:36.691Z,13.90
2017-10-29T02:09:29.697Z,13.86
2017-10-29T02:10:29.738Z,13.95
2017-10-29T02:12:22.728Z,13.90
2017-10-29T02:13:22.788Z,13.87
2017-10-29T02:15:15.795Z,13.92
2017-10-29T02:16:15.833Z,13.83
2017-10-29T02:18:08.825Z,13.83
2017-10-29T02:19:08.881Z,13.79
2017-10-29T02:21:01.885Z,13.72
2017-10-29T02:22:01.926Z,13.85
2017-10-29T02:23:54.915Z,13.96
2017-10-29T02:24:54.971Z,13.90
2017-10-29T02:26:47.978Z,14.04
2017-10-29T02:27:48.018Z,13.92
2017-10-29T02:29:41.023Z,13.89
2017-10-29T02:30:41.063Z,13.92
2017-10-29T02:32:34.060Z,13.87
2017-10-29T02:33:34.109Z,13.87
2017-10-29T02:35:27.118Z,13.87
2017-10-29T02:36:27.159Z,13.78
2017-10-29T02:38:20.147Z,13.79
2017-10-29T02:39:20.211Z,13.67
2017-10-29T02:41:13.222Z,13.59
2017-10-29T02:42:13.268Z,13.56
2017-10-29T02:44:06.249Z,13.52
2017-10-29T02:45:06.314Z,13.52
2017-10-29T02:46:59.319Z,13.46
2017-10-29T02:47:59.359Z,13.49
2017-10-29T02:49:52.341Z,13.39
2017-10-29T02:50:52.400Z,13.47
2017-10-29T02:52:45.407Z,13.38
2017-10-29T02:53:45.449Z,13.39
2017-10-29T02:55:38.431Z,13.49
2017-10-29T02:56:38.493Z,13.54
2017-10-29T02:58:31.501Z,13.52
2017-10-29T02:59:31.537Z,13.41
2017-10-29T03:01:24.520Z,13.44
2017-10-29T03:02:24.581Z,13.49
2017-10-29T03:04:17.589Z,13.49
2017-10-29T03:05:17.630Z,13.46
2017-10-29T03:07:10.637Z,13.56
2017-10-29T03:08:10.679Z,13.52
2017-10-29T03:10:03.671Z,13.57
2017-10-29T03:11:03.729Z,13.57
2017-10-29T03:12:56.749Z,13.50
2017-10-29T03:13:56.776Z,13.60
2017-10-29T03:15:49.764Z,13.60
2017-10-29T03:16:49.828Z,13.63
2017-10-29T03:18:42.832Z,13.63
2017-10-29T03:19:42.870Z,13.67
2017-10-29T03:21:35.860Z,13.72
2017-10-29T03:22:35.921Z,13.62
2017-10-29T03:24:28.938Z,13.53
2017-10-29T03:25:28.975Z,13.46
2017-10-29T03:27:21.967Z,13.53
2017-10-29T03:28:22.022Z,13.42
2017-10-29T03:30:15.030Z,13.27
2017-10-29T03:31:15.078Z,13.15
2017-10-29T03:33:08.058Z,13.22
2017-10-29T03:34:08.115Z,13.16
2017-10-29T03:36:01.120Z,13.01
2017-10-29T03:37:01.159Z,13.00
2017-10-29T03:38:55.163Z,13.03
2017-10-29T03:39:55.204Z,12.97
2017-10-29T03:41:48.190Z,12.98
2017-10-29T03:42:48.248Z,12.94
2017-10-29T03:44:41.254Z,12.97
2017-10-29T03:45:41.304Z,12.90
2017-10-29T03:47:34.276Z,12.93
2017-10-29T03:48:34.344Z,12.91
2017-10-29T03:50:27.341Z,12.91
2017-10-29T03:51:27.381Z,12.85
2017-10-29T03:53:20.370Z,12.86
2017-10-29T03:54:20.428Z,12.79
2017-10-29T03:56:13.430Z,12.79
2017-10-29T03:57:13.468Z,12.78
2017-10-29T03:59:06.457Z,12.75
2017-10-29T04:00:06.513Z,12.68
2017-10-29T04:01:59.521Z,12.70
2017-10-29T04:02:59.558Z,12.64
2017-10-29T04:04:52.545Z,12.55
2017-10-29T04:05:52.601Z,12.61
2017-10-29T04:07:45.607Z,12.67
2017-10-29T04:08:45.645Z,12.64
2017-10-29T04:10:38.651Z,12.62
2017-10-29T04:11:38.690Z,12.65
2017-10-29T04:13:31.680Z,12.62
2017-10-29T04:14:31.734Z,12.54
2017-10-29T04:16:24.738Z,12.58
2017-10-29T04:17:24.776Z,12.53
2017-10-29T04:19:17.768Z,12.42
2017-10-29T04:20:17.823Z,12.45
2017-10-29T04:22:10.828Z,12.53
2017-10-29T04:23:10.869Z,12.42
2017-10-29T04:25:04.369Z,12.39
2017-10-29T04:26:04.418Z,12.55
2017-10-29T04:27:57.423Z,12.42
2017-10-29T04:28:57.470Z,12.53
2017-10-29T04:30:50.443Z,12.53
2017-10-29T04:31:50.506Z,12.53
2017-10-29T04:33:43.509Z,12.53
2017-10-29T04:34:43.549Z,12.45
2017-10-29T04:36:36.576Z,12.60
2017-10-29T04:37:36.593Z,12.64
2017-10-29T04:39:29.579Z,12.75
2017-10-29T04:40:29.638Z,12.68
2017-10-29T04:42:22.650Z,12.64
2017-10-29T04:43:22.689Z,12.60
2017-10-29T04:45:15.678Z,12.62
2017-10-29T04:46:15.737Z,12.64
2017-10-29T04:48:08.748Z,12.76
2017-10-29T04:49:08.785Z,12.76
2017-10-29T04:51:01.767Z,12.82
2017-10-29T04:52:01.828Z,12.65
2017-10-29T04:53:54.845Z,12.67
2017-10-29T04:54:54.874Z,12.54
2017-10-29T04:56:47.860Z,12.36
2017-10-29T04:57:47.918Z,12.29
2017-10-29T04:59:40.926Z,12.20
2017-10-29T05:00:40.960Z,12.18
2017-10-29T05:02:33.943Z,12.03
2017-10-29T05:03:34.005Z,12.07
2017-10-29T05:05:27.009Z,12.03
2017-10-29T05:06:27.047Z,11.94
2017-10-29T05:08:20.034Z,11.91
2017-10-29T05:09:20.091Z,11.91
2017-10-29T05:11:13.098Z,12.03
2017-10-29T05:12:13.137Z,11.95
2017-10-29T05:14:06.144Z,11.95
2017-10-29T05:15:06.181Z,11.88
2017-10-29T05:16:59.270Z,11.99
2017-10-29T05:17:59.227Z,11.90
2017-10-29T05:19:52.236Z,11.97
2017-10-29T05:20:52.276Z,11.95
2017-10-29T05:22:45.259Z,12.00
2017-10-29T05:23:45.315Z,12.04
2017-10-29T05:25:38.831Z,11.99
2017-10-29T05:26:38.866Z,11.88
2017-10-29T05:28:31.855Z,11.88
2017-10-29T05:29:31.913Z,11.90
2017-10-29T05:31:24.922Z,11.94
2017-10-29T05:32:24.959Z,11.90
2017-10-29T05:34:17.942Z,11.90
2017-10-29T05:35:18.004Z,11.88
2017-10-29T05:37:11.012Z,11.86
2017-10-29T05:38:11.048Z,11.86
2017-10-29T05:40:04.072Z,11.73
2017-10-29T05:41:04.094Z,11.83
2017-10-29T05:42:57.081Z,11.69
2017-10-29T05:43:57.138Z,11.70
2017-10-29T05:45:50.196Z,11.60
2017-10-29T05:46:50.180Z,11.59
2017-10-29T05:48:43.175Z,11.50
2017-10-29T05:49:43.223Z,11.51
2017-10-29T05:51:36.229Z,11.43
2017-10-29T05:52:36.267Z,11.45
2017-10-29T05:54:29.254Z,11.40
2017-10-29T05:55:29.311Z,11.32
2017-10-29T05:57:22.319Z,11.45
2017-10-29T05:58:22.355Z,11.45
2017-10-29T06:00:15.343Z,11.44
2017-10-29T06:01:15.402Z,11.40
2017-10-29T06:03:08.404Z,11.26
2017-10-29T06:04:08.443Z,11.19
2017-10-29T06:06:01.430Z,11.36
2017-10-29T06:07:01.487Z,11.37
2017-10-29T06:08:54.492Z,11.23
2017-10-29T06:09:54.529Z,11.27
2017-10-29T06:11:47.533Z,11.19
2017-10-29T06:12:47.572Z,11.05
2017-10-29T06:14:40.559Z,11.11
2017-10-29T06:15:40.616Z,11.15
2017-10-29T06:17:33.620Z,11.18
2017-10-29T06:18:33.706Z,11.18
2017-10-29T06:20:26.646Z,11.11
2017-10-29T06:21:26.703Z,11.14
2017-10-29T06:23:19.731Z,11.10
2017-10-29T06:24:19.746Z,11.04
2017-10-29T06:26:12.735Z,10.99
2017-10-29T06:27:12.789Z,11.05
2017-10-29T06:29:05.800Z,10.96
2017-10-29T06:30:05.840Z,11.00
2017-10-29T06:31:58.819Z,10.96
2017-10-29T06:32:58.885Z,11.02
2017-10-29T06:34:51.885Z,10.97
2017-10-29T06:35:51.945Z,11.02
2017-10-29T06:37:44.909Z,10.97
2017-10-29T06:38:44.965Z,11.00
2017-10-29T06:40:37.974Z,11.00
2017-10-29T06:41:38.010Z,10.97
2017-10-29T06:43:31.049Z,10.97
2017-10-29T06:44:31.073Z,11.00
2017-10-29T06:46:24.057Z,10.93
2017-10-29T06:47:24.114Z,11.00
2017-10-29T06:49:17.121Z,11.00
2017-10-29T06:50:17.161Z,11.02
2017-10-29T06:52:10.141Z,10.97
2017-10-29T06:53:10.201Z,11.05
2017-10-29T06:55:03.216Z,10.97
2017-10-29T06:56:03.242Z,10.97
2017-10-29T06:57:56.256Z,10.97
2017-10-29T06:58:56.392Z,11.07
2017-10-29T07:00:49.339Z,11.12
2017-10-29T07:01:49.360Z,11.17
2017-10-29T07:03:42.344Z,11.18
2017-10-29T07:04:42.400Z,11.23
2017-10-29T07:06:35.430Z,11.19
2017-10-29T07:07:35.460Z,11.27
2017-10-29T07:09:28.430Z,11.27
2017-10-29T07:10:28.490Z,11.32
2017-10-29T07:12:21.499Z,11.36
2017-10-29T07:13:21.536Z,11.45
2017-10-29T07:15:14.565Z,11.43
2017-10-29T07:16:14.591Z,11.44
2017-10-29T07:18:07.573Z,11.30
2017-10-29T07:19:07.630Z,11.26
2017-10-29T07:21:00.703Z,11.18
2017-10-29T07:22:00.672Z,11.25
2017-10-29T07:23:53.653Z,11.41
2017-10-29T07:24:53.713Z,11.65
2017-10-29T07:26:46.717Z,11.94
2017-10-29T07:27:46.755Z,12.12
2017-10-29T07:29:39.743Z,12.42
2017-10-29T07:30:39.802Z,12.39
2017-10-29T07:32:32.806Z,12.03
2017-10-29T07:33:32.846Z,11.77
2017-10-29T07:35:25.834Z,11.55
2017-10-29T07:36:25.891Z,11.77
2017-10-29T07:38:18.901Z,12.85
2017-10-29T07:39:18.939Z,13.08
2017-10-29T07:41:11.958Z,12.87
2017-10-29T07:42:11.988Z,12.97
2017-10-29T07:44:04.973Z,12.90
2017-10-29T07:45:05.030Z,13.54
2017-10-29T07:46:58.033Z,12.87
2017-10-29T07:47:58.072Z,12.67
2017-10-29T07:49:51.055Z,13.39
2017-10-29T07:50:51.116Z,13.86
2017-10-29T07:52:44.125Z,13.42
2017-10-29T07:53:44.163Z,13.09
2017-10-29T07:55:37.154Z,13.41
2017-10-29T07:56:37.237Z,13.93
2017-10-29T07:58:30.257Z,14.12
2017-10-29T07:59:30.255Z,14.26
2017-10-29T08:01:23.246Z,14.51
2017-10-29T08:02:23.299Z,15.07
2017-10-29T08:04:16.305Z,15.27
2017-10-29T08:05:16.365Z,15.37
2017-10-29T08:07:09.351Z,15.57
2017-10-29T08:08:09.391Z,16.04
2017-10-29T08:10:02.379Z,15.14
2017-10-29T08:11:02.458Z,14.96
2017-10-29T08:12:55.484Z,14.58
2017-10-29T08:13:55.487Z,14.55
2017-10-29T08:15:48.473Z,14.60
2017-10-29T08:16:48.534Z,14.17
2017-10-29T08:18:41.545Z,14.36
2017-10-29T08:19:41.580Z,14.48
2017-10-29T08:21:34.570Z,15.00
2017-10-29T08:22:34.629Z,15.04
2017-10-29T08:24:27.642Z,15.25
2017-10-29T08:25:27.679Z,15.39
2017-10-29T08:27:20.672Z,15.18
2017-10-29T08:28:20.734Z,15.44
2017-10-29T08:30:13.751Z,15.14
2017-10-29T08:31:13.783Z,15.18
2017-10-29T08:33:06.771Z,15.33
2017-10-29T08:34:06.830Z,15.61
2017-10-29T08:35:59.839Z,15.65
2017-10-29T08:36:59.883Z,15.57
2017-10-29T08:38:52.889Z,15.68
2017-10-29T08:39:52.936Z,15.90
2017-10-29T08:41:45.936Z,16.21
2017-10-29T08:42:45.979Z,15.97
2017-10-29T08:44:38.987Z,15.62
2017-10-29T08:45:39.028Z,15.42
2017-10-29T08:47:32.017Z,15.42
2017-10-29T08:48:32.078Z,15.44
2017-10-29T08:50:25.090Z,15.11
2017-10-29T08:51:25.123Z,14.96
2017-10-29T08:53:18.108Z,14.60
2017-10-29T08:54:18.170Z,14.32
2017-10-29T08:56:11.179Z,14.40
2017-10-29T08:57:11.218Z,14.14
2017-10-29T08:59:04.213Z,13.57
2017-10-29T09:00:04.276Z,13.30
2017-10-29T09:01:57.291Z,12.91
2017-10-29T09:02:57.336Z,12.78
2017-10-29T09:04:50.323Z,12.72
2017-10-29T09:05:50.378Z,12.73
2017-10-29T09:07:43.387Z,12.62
2017-10-29T09:08:43.425Z,12.46
2017-10-29T09:10:36.435Z,12.49
2017-10-29T09:11:36.472Z,12.68
2017-10-29T09:13:29.461Z,12.72
2017-10-29T09:14:29.519Z,12.75
2017-10-29T09:16:22.528Z,12.95
2017-10-29T09:17:22.584Z,12.91
2017-10-29T09:19:15.558Z,12.85
2017-10-29T09:20:15.616Z,12.75
2017-10-29T09:22:08.623Z,12.57
2017-10-29T09:23:08.663Z,12.83
2017-10-29T09:25:01.652Z,12.97
2017-10-29T09:26:01.710Z,13.08
2017-10-29T09:27:54.720Z,13.05
2017-10-29T09:28:54.758Z,13.00
2017-10-29T09:30:47.748Z,12.98
2017-10-29T09:31:47.803Z,13.00
2017-10-29T09:33:40.820Z,13.03
2017-10-29T09:34:40.861Z,13.01
2017-10-29T09:36:33.851Z,12.98
2017-10-29T09:37:34.898Z,12.95
2017-10-29T09:39:26.936Z,12.94
2017-10-29T09:40:26.959Z,12.86
2017-10-29T09:42:19.951Z,12.97
2017-10-29T09:43:20.006Z,13.15
2017-10-29T09:45:13.013Z,13.39
2017-10-29T09:46:13.052Z,13.46
2017-10-29T09:48:06.068Z,13.28
2017-10-29T09:49:06.100Z,13.18
2017-10-29T09:50:59.091Z,12.94
2017-10-29T09:51:59.147Z,12.86
2017-10-29T09:53:52.153Z,12.68
2017-10-29T09:54:52.195Z,12.53
2017-10-29T09:56:45.179Z,12.25
2017-10-29T09:57:45.240Z,12.20
2017-10-29T09:59:38.247Z,12.29
2017-10-29T10:00:38.286Z,12.37
2017-10-29T10:02:31.275Z,12.57
2017-10-29T10:03:31.333Z,12.49
2017-10-29T10:05:24.382Z,12.55
2017-10-29T10:06:24.420Z,12.43
2017-10-29T10:08:17.410Z,12.50
2017-10-29T10:09:17.465Z,12.50
2017-10-29T10:11:10.547Z,12.37
2017-10-29T10:12:10.515Z,12.49
2017-10-29T10:14:03.510Z,12.68
2017-10-29T10:15:03.561Z,12.75
2017-10-29T10:16:56.570Z,12.91
2017-10-29T10:17:56.608Z,12.97
2017-10-29T10:19:49.597Z,13.28
2017-10-29T10:20:49.652Z,13.30
2017-10-29T10:22:42.664Z,13.08
2017-10-29T10:23:42.704Z,13.05
2017-10-29T10:25:36.239Z,12.91
2017-10-29T10:26:36.257Z,12.91
2017-10-29T10:28:29.271Z,12.91
2017-10-29T10:29:29.311Z,12.87
2017-10-29T10:31:22.329Z,13.01
2017-10-29T10:32:22.359Z,12.91
2017-10-29T10:34:15.343Z,12.95
2017-10-29T10:35:15.404Z,12.83
2017-10-29T10:37:08.413Z,12.83
2017-10-29T10:38:08.454Z,12.90
2017-10-29T10:40:01.438Z,12.85
2017-10-29T10:41:01.502Z,12.86
2017-10-29T10:42:54.509Z,12.94
2017-10-29T10:43:54.544Z,12.97
2017-10-29T10:45:47.532Z,13.08
2017-10-29T10:46:47.592Z,13.15
2017-10-29T10:48:40.603Z,13.31
2017-10-29T10:49:40.636Z,13.44
2017-10-29T10:51:33.626Z,13.63
2017-10-29T10:52:33.686Z,13.63
2017-10-29T10:54:26.694Z,13.46
2017-10-29T10:55:26.731Z,13.49
2017-10-29T10:57:19.721Z,13.59
2017-10-29T10:58:19.780Z,13.60
2017-10-29T11:00:12.789Z,13.52
2017-10-29T11:01:12.830Z,13.54
2017-10-29T11:03:05.819Z,13.30
2017-10-29T11:04:05.899Z,13.25
2017-10-29T11:05:58.888Z,12.97
2017-10-29T11:06:58.925Z,12.76
2017-10-29T11:08:51.945Z,12.31
2017-10-29T11:09:51.971Z,11.99
2017-10-29T11:11:44.960Z,11.65
2017-10-29T11:12:45.023Z,11.77
2017-10-29T11:14:38.039Z,11.68
2017-10-29T11:15:38.064Z,11.84
2017-10-29T11:17:31.050Z,12.06
2017-10-29T11:18:31.110Z,12.03
2017-10-29T11:20:24.124Z,11.78
2017-10-29T11:21:24.156Z,11.70
2017-10-29T11:23:17.145Z,11.69
2017-10-29T11:24:17.206Z,11.66
2017-10-29T11:26:10.757Z,11.69
2017-10-29T11:27:10.768Z,11.77
2017-10-29T11:29:03.746Z,11.81
2017-10-29T11:30:03.804Z,11.80
2017-10-29T11:31:56.808Z,11.83
2017-10-29T11:32:56.847Z,11.87
2017-10-29T11:34:49.835Z,12.07
2017-10-29T11:35:49.893Z,12.12
2017-10-29T11:37:42.897Z,12.15
2017-10-29T11:38:42.936Z,12.10
2017-10-29T11:40:35.928Z,12.02
2017-10-29T11:41:35.983Z,12.00
2017-10-29T11:43:28.990Z,12.10
2017-10-29T11:44:29.026Z,12.12
2017-10-29T11:46:22.036Z,12.12
2017-10-29T11:47:22.070Z,12.10
2017-10-29T11:49:15.059Z,12.22
2017-10-29T11:50:15.116Z,12.20
2017-10-29T11:52:08.151Z,12.29
2017-10-29T11:53:08.189Z,12.43
2017-10-29T11:55:01.144Z,12.42
2017-10-29T11:56:01.203Z,12.40
2017-10-29T11:57:54.209Z,12.40
2017-10-29T11:58:54.247Z,12.47
2017-10-29T12:00:47.238Z,12.47
2017-10-29T12:01:47.295Z,12.49
2017-10-29T12:03:40.365Z,12.60
2017-10-29T12:04:40.344Z,12.57
2017-10-29T12:06:33.333Z,12.54
2017-10-29T12:07:33.394Z,12.54
2017-10-29T12:09:26.401Z,12.54
2017-10-29T12:10:26.464Z,12.65
2017-10-29T12:12:19.428Z,12.64
2017-10-29T12:13:19.485Z,12.72
2017-10-29T12:15:12.492Z,12.62
2017-10-29T12:16:12.544Z,12.61
2017-10-29T12:18:05.515Z,12.62
2017-10-29T12:19:05.578Z,12.87
2017-10-29T12:20:58.582Z,13.18
2017-10-29T12:21:58.620Z,13.20
2017-10-29T12:23:51.623Z,13.18
2017-10-29T12:24:51.684Z,13.04
2017-10-29T12:26:44.680Z,12.67
2017-10-29T12:27:44.719Z,12.53
2017-10-29T12:29:37.707Z,12.39
2017-10-29T12:30:37.774Z,12.24
2017-10-29T12:32:30.787Z,12.12
2017-10-29T12:33:30.824Z,12.09
2017-10-29T12:35:23.823Z,11.91
2017-10-29T12:36:23.868Z,11.70
2017-10-29T12:38:16.855Z,11.51
2017-10-29T12:39:16.912Z,11.54
2017-10-29T12:41:09.923Z,11.55
2017-10-29T12:42:09.958Z,11.60
2017-10-29T12:44:02.939Z,11.52
2017-10-29T12:45:03.003Z,11.57
2017-10-29T12:46:56.004Z,11.54
2017-10-29T12:47:56.054Z,11.52
2017-10-29T12:49:49.032Z,11.55
2017-10-29T12:50:49.092Z,11.57
2017-10-29T12:52:42.094Z,11.75
2017-10-29T12:53:42.133Z,11.84
2017-10-29T12:55:35.127Z,12.00
2017-10-29T12:56:35.176Z,11.88
2017-10-29T12:58:28.184Z,12.04
2017-10-29T12:59:28.223Z,12.06
2017-10-29T13:01:21.228Z,12.24
2017-10-29T13:02:21.268Z,12.27
2017-10-29T13:04:14.274Z,12.22
2017-10-29T13:05:14.313Z,12.25
2017-10-29T13:07:07.326Z,12.13
2017-10-29T13:08:07.363Z,12.09
2017-10-29T13:10:00.352Z,12.03
2017-10-29T13:11:00.413Z,12.07
2017-10-29T13:12:53.419Z,12.17
2017-10-29T13:13:53.454Z,12.27
2017-10-29T13:15:46.441Z,12.42
2017-10-29T13:16:46.498Z,12.37
2017-10-29T13:18:39.501Z,12.45
2017-10-29T13:19:39.541Z,12.40
2017-10-29T13:21:32.524Z,12.37
2017-10-29T13:22:32.585Z,12.32
2017-10-29T13:24:25.592Z,12.31
2017-10-29T13:25:25.630Z,12.32
2017-10-29T13:27:18.614Z,12.40
2017-10-29T13:28:18.691Z,12.53
2017-10-29T13:30:11.682Z,12.49
2017-10-29T13:31:11.719Z,12.58
2017-10-29T13:33:04.719Z,12.65
2017-10-29T13:34:04.765Z,12.75
2017-10-29T13:35:57.771Z,12.82
2017-10-29T13:36:57.811Z,12.75
2017-10-29T13:38:50.856Z,12.86
2017-10-29T13:39:50.853Z,12.82
2017-10-29T13:41:43.838Z,12.62
2017-10-29T13:42:43.899Z,12.58
2017-10-29T13:44:36.998Z,12.37
2017-10-29T13:45:36.944Z,12.20
2017-10-29T13:47:29.936Z,11.90
2017-10-29T13:48:30.001Z,11.77
2017-10-29T13:50:23.013Z,11.60
2017-10-29T13:51:23.049Z,11.57
2017-10-29T13:53:16.028Z,11.52
2017-10-29T13:54:16.089Z,11.52
2017-10-29T13:56:09.094Z,11.63
2017-10-29T13:57:09.132Z,11.70
2017-10-29T13:59:02.120Z,11.81
2017-10-29T14:00:02.182Z,11.86
2017-10-29T14:01:55.185Z,12.00
2017-10-29T14:02:55.226Z,12.09
2017-10-29T14:04:48.211Z,12.31
2017-10-29T14:05:48.282Z,12.42
2017-10-29T14:07:41.271Z,12.42
2017-10-29T14:08:41.310Z,12.54
2017-10-29T14:10:34.316Z,12.53
2017-10-29T14:11:34.356Z,12.53
2017-10-29T14:13:27.355Z,12.58
2017-10-29T14:14:27.407Z,12.65
2017-10-29T14:16:20.412Z,12.54
2017-10-29T14:17:20.451Z,12.53
2017-10-29T14:19:13.442Z,12.25
2017-10-29T14:20:13.503Z,12.09
2017-10-29T14:22:06.509Z,11.91
2017-10-29T14:23:06.548Z,11.81
2017-10-29T14:24:59.537Z,11.69
2017-10-29T14:25:59.599Z,11.63
2017-10-29T14:27:52.601Z,11.50
2017-10-29T14:28:52.641Z,11.48
2017-10-29T14:30:45.628Z,11.44
2017-10-29T14:31:45.686Z,11.50
2017-10-29T14:33:38.690Z,11.45
2017-10-29T14:34:38.730Z,11.43
2017-10-29T14:36:31.754Z,11.40
2017-10-29T14:37:31.780Z,11.45
2017-10-29T14:39:24.760Z,11.45
2017-10-29T14:40:24.817Z,11.44
2017-10-29T14:42:17.821Z,11.36
2017-10-29T14:43:17.866Z,11.41
2017-10-29T14:45:10.843Z,11.37
2017-10-29T14:46:10.903Z,11.40
2017-10-29T14:48:03.910Z,11.40
2017-10-29T14:49:03.948Z,11.43
2017-10-29T14:50:56.932Z,11.41
2017-10-29T14:51:56.996Z,11.43
2017-10-29T14:53:49.997Z,11.43
2017-10-29T14:54:50.036Z,11.30
2017-10-29T14:56:43.018Z,11.41
2017-10-29T14:57:43.078Z,11.40
2017-10-29T14:59:36.086Z,11.29
2017-10-29T15:00:36.125Z,11.22
2017-10-29T15:02:29.161Z,11.26
2017-10-29T15:03:29.167Z,11.26
2017-10-29T15:05:22.151Z,11.22
2017-10-29T15:06:22.211Z,11.29
2017-10-29T15:08:15.218Z,11.25
2017-10-29T15:09:15.257Z,11.15
2017-10-29T15:11:08.245Z,11.25
2017-10-29T15:12:08.301Z,11.23
2017-10-29T15:14:01.312Z,11.17
2017-10-29T15:15:01.352Z,11.12
2017-10-29T15:16:54.333Z,11.12
2017-10-29T15:17:54.393Z,11.11
2017-10-29T15:19:47.397Z,11.02
2017-10-29T15:20:47.435Z,10.97
2017-10-29T15:22:40.440Z,10.92
2017-10-29T15:23:40.480Z,10.87
2017-10-29T15:25:34.009Z,10.89
2017-10-29T15:26:34.029Z,10.89
2017-10-29T15:28:27.038Z,10.81
2017-10-29T15:29:27.079Z,10.86
2017-10-29T15:31:20.083Z,10.86
2017-10-29T15:32:20.119Z,10.84
2017-10-29T15:34:13.137Z,10.89
2017-10-29T15:35:13.163Z,10.74
2017-10-29T15:37:06.145Z,10.75
2017-10-29T15:38:06.206Z,10.74
2017-10-29T15:39:59.209Z,10.78
2017-10-29T15:40:59.252Z,10.61
2017-10-29T15:42:52.234Z,10.61
2017-10-29T15:43:52.292Z,10.57
2017-10-29T15:45:45.302Z,10.61
2017-10-29T15:46:45.342Z,10.56
2017-10-29T15:48:38.324Z,10.42
2017-10-29T15:49:38.381Z,10.54
2017-10-29T15:51:31.384Z,10.44
2017-10-29T15:52:31.439Z,10.44
2017-10-29T15:54:24.410Z,10.40
2017-10-29T15:55:24.465Z,10.40
2017-10-29T15:57:17.470Z,10.40
2017-10-29T15:58:17.508Z,10.35
2017-10-29T16:00:10.513Z,10.25
2017-10-29T16:01:10.550Z,10.23
2017-10-29T16:03:03.535Z,10.30
2017-10-29T16:04:03.597Z,10.25
2017-10-29T16:05:56.616Z,10.17
2017-10-29T16:06:56.641Z,10.20
2017-10-29T16:08:49.641Z,10.16
2017-10-29T16:09:49.683Z,10.16
2017-10-29T16:11:42.685Z,10.10
2017-10-29T16:12:42.738Z,10.17
2017-10-29T16:14:35.710Z,10.13
2017-10-29T16:15:35.767Z,10.12
2017-10-29T16:17:28.777Z,9.97
2017-10-29T16:18:28.808Z,9.98
2017-10-29T16:20:21.788Z,9.99
2017-10-29T16:21:21.848Z,10.05
2017-10-29T16:23:14.852Z,9.97
2017-10-29T16:24:14.889Z,10.04
2017-10-29T16:26:08.387Z,9.98
2017-10-29T16:27:08.442Z,9.95
2017-10-29T16:29:01.450Z,9.95
2017-10-29T16:30:01.497Z,9.89
2017-10-29T16:31:54.474Z,9.86
2017-10-29T16:32:54.528Z,9.86
2017-10-29T16:34:47.534Z,9.92
2017-10-29T16:35:47.570Z,9.92
2017-10-29T16:37:40.577Z,9.84
2017-10-29T16:38:40.610Z,9.74
2017-10-29T16:40:33.595Z,9.86
2017-10-29T16:41:33.652Z,9.79
2017-10-29T16:43:26.656Z,9.76
2017-10-29T16:44:26.698Z,9.74
2017-10-29T16:46:19.684Z,9.65
2017-10-29T16:47:19.745Z,9.73
2017-10-29T16:49:12.747Z,9.64
2017-10-29T16:50:12.799Z,9.61
2017-10-29T16:52:05.770Z,9.59
2017-10-29T16:53:05.831Z,9.64
2017-10-29T16:54:58.838Z,9.66
2017-10-29T16:55:58.886Z,9.59
2017-10-29T16:57:51.866Z,9.59
2017-10-29T16:58:51.914Z,9.64
2017-10-29T17:00:44.916Z,9.64
2017-10-29T17:01:44.953Z,9.58
2017-10-29T17:03:37.934Z,9.62
2017-10-29T17:04:37.995Z,9.55
2017-10-29T17:06:31.008Z,9.50
2017-10-29T17:07:31.042Z,9.50
2017-10-29T17:09:24.047Z,9.51
2017-10-29T17:10:24.089Z,9.58
2017-10-29T17:12:17.070Z,9.58
2017-10-29T17:13:17.127Z,9.51
2017-10-29T17:15:10.132Z,9.58
2017-10-29T17:16:10.170Z,9.58
2017-10-29T17:18:03.151Z,9.48
2017-10-29T17:19:03.213Z,9.50
2017-10-29T17:20:56.217Z,9.44
2017-10-29T17:21:56.252Z,9.47
2017-10-29T17:23:49.239Z,9.39
2017-10-29T17:24:49.296Z,9.48
2017-10-29T17:26:42.306Z,9.47
2017-10-29T17:27:42.342Z,9.39
2017-10-29T17:29:35.325Z,9.46
2017-10-29T17:30:35.383Z,9.36
2017-10-29T17:32:28.387Z,9.46
2017-10-29T17:33:28.421Z,9.41
2017-10-29T17:35:21.422Z,9.40
2017-10-29T17:36:21.462Z,9.32
2017-10-29T17:38:14.466Z,9.32
2017-10-29T17:39:14.503Z,9.46
2017-10-29T17:41:07.517Z,9.51
2017-10-29T17:42:07.541Z,9.54
2017-10-29T17:44:00.523Z,9.50
2017-10-29T17:45:00.580Z,9.46
2017-10-29T17:46:53.604Z,9.41
2017-10-29T17:47:53.622Z,9.41
2017-10-29T17:49:46.602Z,9.44
2017-10-29T17:50:46.661Z,9.41
2017-10-29T17:52:39.663Z,9.48
2017-10-29T17:53:39.707Z,9.46
2017-10-29T17:55:32.686Z,9.39
2017-10-29T17:56:32.743Z,9.39
2017-10-29T17:58:25.743Z,9.46
2017-10-29T17:59:25.782Z,9.34
2017-10-29T18:01:18.768Z,9.34
2017-10-29T18:02:18.823Z,9.28
2017-10-29T18:04:11.825Z,9.25
2017-10-29T18:05:11.881Z,9.31
2017-10-29T18:07:04.892Z,9.40
2017-10-29T18:08:04.910Z,9.44
2017-10-29T18:09:57.899Z,9.37
2017-10-29T18:10:57.950Z,9.34
2017-10-29T18:12:50.953Z,9.28
2017-10-29T18:13:50.989Z,9.25
2017-10-29T18:15:43.969Z,9.25
2017-10-29T18:16:44.028Z,9.22
2017-10-29T18:18:37.035Z,9.18
2017-10-29T18:19:37.079Z,9.21
2017-10-29T18:21:30.063Z,9.19
2017-10-29T18:22:30.125Z,9.26
2017-10-29T18:24:23.128Z,9.21
2017-10-29T18:25:23.166Z,9.23
2017-10-29T18:27:16.145Z,9.19
2017-10-29T18:28:16.202Z,9.14
2017-10-29T18:30:09.206Z,9.13
2017-10-29T18:31:09.243Z,9.08
2017-10-29T18:33:02.229Z,9.03
2017-10-29T18:34:02.292Z,9.08
2017-10-29T18:35:55.290Z,9.06
2017-10-29T18:36:55.327Z,9.08
2017-10-29T18:38:48.333Z,9.02